KLSF/LSF METAR and TAF weather

Enter ICAO airport designator
Station Type Date Time Source
KLSF METAR 2020/12/01 21:56 UTC NOAA

KLSF 012156Z AUTO 31007KT 10SM CLR 08/M08 A3018 RMK AO2 SLP227 T00771076 $


Station Type Date Time Source
KLSF Decoded METAR 2020/12/01 21:56 UTC NOAA

Fort Benning, GA, United States (KLSF) 32-20N 084-50W 130M
Dec 01, 2020 - 04:56 PM EST / 2020.12.01 2156 UTC
Wind: from the NW (310 degrees) at 8 MPH (7 KT):0
Visibility: 10 mile(s):0
Sky conditions: clear
Temperature: 45.9 F (7.7 C)
Dew Point: 18.3 F (-7.6 C)
Relative Humidity: 32%
Pressure (altimeter): 30.18 in. Hg (1022 hPa)
ob: KLSF 012156Z AUTO 31007KT 10SM CLR 08/M08 A3018 RMK AO2 SLP227 T00771076
cycle: 22

Station Type Date Time Source
KLSF TAF 2020/12/01 14:25 UTC NOAA

TAF KLSF 011400Z 0114/0220 29009KT 9999 SKC 510013 QNH3020INS
TEMPO 0115/0117 30010G18KT
BECMG 0117/0118 31010G16KT 9999 SKC QNH3018INS
BECMG 0121/0122 28006KT 9999 SKC QNH3015INS
BECMG 0207/0208 00000KT 4800 BR SKC QNH3024INS
BECMG 0211/0212 36004KT 9999 NSW SKC QNH3028INS TX10/0120Z TNM04/0211Z

Example: see airport list